LiveATC.Net - Listen to live air traffic control over the Internet!


ICAO: KUKI  IATA: UKI   Airport: Ukiah Municipal Airport
City: Ukiah   State/Province: California
Country: United States   Continent: North America
KUKI METAR Weather: KUKI 241456Z AUTO 33003KT 10SM OVC018 13/08 A3007 RMK AO2 SLP178 T01280083 53011
KUKI ADS-B Flight Tracking  (ADSBExchange)
KUKI Flight Activity (FlightAware)
KUKI Airport Info   (iFlightPlanner)
KUKI VFR Sectional Chart   (iFlightPlanner) 
KUKI IFR Low Altitude Chart   (iFlightPlanner) 
KUKI IFR High Altitude Chart   (iFlightPlanner) 

KUKI CTAF
Feed Status: UP   Listeners: 0
Listen in your browser - HTML5 player (in browser, HTML5)
Click here to listen with your own player (launches your MP3 player)
Archive Access: KUKI CTAF
FacilityFrequency
Ukiah CTAF123.000

NOTICE

Unauthorized use prohibited. See LiveATC.net Terms of Service


Airport/ARTCC Code
Frequency Search
(e.g., 124.400, 128.75)
Site-wide search
 


Browse Feeds
Top 50 Feeds
HF Oceanic Feeds
Coverage Map
Bad Weather Areas

LiveATC FAQ

Increase Coverage

Contact LiveATC.net
Press Inquiries

LiveATC on iPhone
LiveATC on Android

LiveATC Mobile
(Mobile browser)

ATC Audio Archives
Interesting Recordings

LiveATC Forums


Home Page
About LiveATC.net


Terms of Use
Privacy Policy

AIRMETs/SIGMETs

FAA Airport Status
NAS Status
Arrival Demand


Server Software By:
Icecast.org
Liquidsoap